sensor_id;sensor_type;location;lat;lon;timestamp;temperature;humidity
9666;DHT22;4871;52.004;5.924;2023-05-15T00:00:00;14.7;62.5
9666;DHT22;4871;52.004;5.924;2023-05-15T00:01:00;14.7;62.2
9666;DHT22;4871;52.004;5.924;2023-05-15T00:02:01;14.7;62.6
9666;DHT22;4871;52.004;5.924;2023-05-15T00:03:01;14.7;62.7
9666;DHT22;4871;52.004;5.924;2023-05-15T00:04:01;14.7;62.3
9666;DHT22;4871;52.004;5.924;2023-05-15T00:05:00;14.7;62.3
9666;DHT22;4871;52.004;5.924;2023-05-15T00:06:00;14.6;62.6
9666;DHT22;4871;52.004;5.924;2023-05-15T00:07:00;14.6;62.6
9666;DHT22;4871;52.004;5.924;2023-05-15T00:08:00;14.6;62.4
9666;DHT22;4871;52.004;5.924;2023-05-15T00:09:00;14.6;62.5
9666;DHT22;4871;52.004;5.924;2023-05-15T00:10:00;14.6;62.9
9666;DHT22;4871;52.004;5.924;2023-05-15T00:11:00;14.6;62.5
9666;DHT22;4871;52.004;5.924;2023-05-15T00:12:00;14.5;62.6
9666;DHT22;4871;52.004;5.924;2023-05-15T00:13:00;14.5;63.2
9666;DHT22;4871;52.004;5.924;2023-05-15T00:14:00;14.5;62.8
9666;DHT22;4871;52.004;5.924;2023-05-15T00:15:00;14.5;62.7
9666;DHT22;4871;52.004;5.924;2023-05-15T00:16:00;14.5;63.0
9666;DHT22;4871;52.004;5.924;2023-05-15T00:17:00;14.5;62.6
9666;DHT22;4871;52.004;5.924;2023-05-15T00:18:00;14.6;62.8
9666;DHT22;4871;52.004;5.924;2023-05-15T00:19:00;14.5;62.7
9666;DHT22;4871;52.004;5.924;2023-05-15T00:20:00;14.5;62.9
9666;DHT22;4871;52.004;5.924;2023-05-15T00:21:00;14.5;62.8
9666;DHT22;4871;52.004;5.924;2023-05-15T00:22:00;14.5;62.7
9666;DHT22;4871;52.004;5.924;2023-05-15T00:23:00;14.5;62.6
9666;DHT22;4871;52.004;5.924;2023-05-15T00:24:00;14.4;62.7
9666;DHT22;4871;52.004;5.924;2023-05-15T00:25:00;14.4;62.3
9666;DHT22;4871;52.004;5.924;2023-05-15T00:26:00;14.4;63.1
9666;DHT22;4871;52.004;5.924;2023-05-15T00:27:00;14.4;62.5
9666;DHT22;4871;52.004;5.924;2023-05-15T00:28:00;14.4;62.7
9666;DHT22;4871;52.004;5.924;2023-05-15T00:29:00;14.4;62.3
9666;DHT22;4871;52.004;5.924;2023-05-15T00:30:00;14.4;62.5
9666;DHT22;4871;52.004;5.924;2023-05-15T00:31:00;14.4;62.8
9666;DHT22;4871;52.004;5.924;2023-05-15T00:32:00;14.3;62.9
9666;DHT22;4871;52.004;5.924;2023-05-15T00:33:00;14.3;62.8
9666;DHT22;4871;52.004;5.924;2023-05-15T00:34:00;14.3;62.3
9666;DHT22;4871;52.004;5.924;2023-05-15T00:35:00;14.3;62.6
9666;DHT22;4871;52.004;5.924;2023-05-15T00:36:00;14.3;62.7
9666;DHT22;4871;52.004;5.924;2023-05-15T00:37:00;14.3;62.2
9666;DHT22;4871;52.004;5.924;2023-05-15T00:38:00;14.3;62.5
9666;DHT22;4871;52.004;5.924;2023-05-15T00:39:00;14.3;62.6
9666;DHT22;4871;52.004;5.924;2023-05-15T00:40:00;14.3;62.7
9666;DHT22;4871;52.004;5.924;2023-05-15T00:41:01;14.3;62.1
9666;DHT22;4871;52.004;5.924;2023-05-15T00:42:01;14.3;62.6
9666;DHT22;4871;52.004;5.924;2023-05-15T00:43:00;14.2;62.8
9666;DHT22;4871;52.004;5.924;2023-05-15T00:44:01;14.2;62.8
9666;DHT22;4871;52.004;5.924;2023-05-15T00:45:01;14.2;62.7
9666;DHT22;4871;52.004;5.924;2023-05-15T00:46:01;14.2;62.9
9666;DHT22;4871;52.004;5.924;2023-05-15T00:47:01;14.2;62.6
9666;DHT22;4871;52.004;5.924;2023-05-15T00:48:00;14.2;62.4
9666;DHT22;4871;52.004;5.924;2023-05-15T00:49:01;14.2;62.7
9666;DHT22;4871;52.004;5.924;2023-05-15T00:50:00;14.1;62.7
9666;DHT22;4871;52.004;5.924;2023-05-15T00:51:00;14.1;62.8
9666;DHT22;4871;52.004;5.924;2023-05-15T00:52:03;14.1;62.6
9666;DHT22;4871;52.004;5.924;2023-05-15T00:53:02;14.1;63.0
9666;DHT22;4871;52.004;5.924;2023-05-15T00:54:01;14.1;62.8
9666;DHT22;4871;52.004;5.924;2023-05-15T00:55:00;14.0;62.8
9666;DHT22;4871;52.004;5.924;2023-05-15T00:56:01;14.0;62.8
9666;DHT22;4871;52.004;5.924;2023-05-15T00:57:01;14.0;62.5
9666;DHT22;4871;52.004;5.924;2023-05-15T00:58:01;14.1;62.6
9666;DHT22;4871;52.004;5.924;2023-05-15T00:59:02;14.0;63.0
9666;DHT22;4871;52.004;5.924;2023-05-15T01:00:01;14.0;63.0
9666;DHT22;4871;52.004;5.924;2023-05-15T01:01:00;14.0;62.6
9666;DHT22;4871;52.004;5.924;2023-05-15T01:02:00;14.0;62.6
9666;DHT22;4871;52.004;5.924;2023-05-15T01:03:00;14.0;62.7
9666;DHT22;4871;52.004;5.924;2023-05-15T01:04:01;14.0;62.6
9666;DHT22;4871;52.004;5.924;2023-05-15T01:05:00;14.0;62.6
9666;DHT22;4871;52.004;5.924;2023-05-15T01:06:00;14.0;62.4
9666;DHT22;4871;52.004;5.924;2023-05-15T01:07:00;13.9;62.8
9666;DHT22;4871;52.004;5.924;2023-05-15T01:08:07;13.9;62.8
9666;DHT22;4871;52.004;5.924;2023-05-15T01:09:03;13.9;62.6
9666;DHT22;4871;52.004;5.924;2023-05-15T01:10:02;13.9;62.8
9666;DHT22;4871;52.004;5.924;2023-05-15T01:11:01;13.9;62.8
9666;DHT22;4871;52.004;5.924;2023-05-15T01:12:01;13.9;62.5
9666;DHT22;4871;52.004;5.924;2023-05-15T01:13:01;13.9;62.6
9666;DHT22;4871;52.004;5.924;2023-05-15T01:14:01;13.9;62.7
9666;DHT22;4871;52.004;5.924;2023-05-15T01:15:00;13.8;62.7
9666;DHT22;4871;52.004;5.924;2023-05-15T01:16:00;13.8;62.9
9666;DHT22;4871;52.004;5.924;2023-05-15T01:17:00;13.8;62.8
9666;DHT22;4871;52.004;5.924;2023-05-15T01:18:00;13.8;62.8
9666;DHT22;4871;52.004;5.924;2023-05-15T01:19:00;13.8;62.8
9666;DHT22;4871;52.004;5.924;2023-05-15T01:20:02;13.8;62.9
9666;DHT22;4871;52.004;5.924;2023-05-15T01:21:10;13.8;62.8
9666;DHT22;4871;52.004;5.924;2023-05-15T01:22:16;13.7;62.7
9666;DHT22;4871;52.004;5.924;2023-05-15T01:23:08;13.7;62.8
9666;DHT22;4871;52.004;5.924;2023-05-15T01:24:12;13.7;63.0
9666;DHT22;4871;52.004;5.924;2023-05-15T01:25:20;13.7;62.9
9666;DHT22;4871;52.004;5.924;2023-05-15T01:26:10;13.7;63.1
9666;DHT22;4871;52.004;5.924;2023-05-15T01:27:07;13.7;62.9
9666;DHT22;4871;52.004;5.924;2023-05-15T01:28:02;13.7;63.2
9666;DHT22;4871;52.004;5.924;2023-05-15T01:29:03;13.7;62.9
9666;DHT22;4871;52.004;5.924;2023-05-15T01:30:04;13.6;62.5
9666;DHT22;4871;52.004;5.924;2023-05-15T01:31:05;13.6;62.5
9666;DHT22;4871;52.004;5.924;2023-05-15T01:32:02;13.6;62.9
9666;DHT22;4871;52.004;5.924;2023-05-15T01:33:04;13.6;62.7
9666;DHT22;4871;52.004;5.924;2023-05-15T01:34:02;13.7;62.4
9666;DHT22;4871;52.004;5.924;2023-05-15T01:35:04;13.7;62.5
9666;DHT22;4871;52.004;5.924;2023-05-15T01:36:06;13.6;63.0
9666;DHT22;4871;52.004;5.924;2023-05-15T01:37:02;13.6;62.7
9666;DHT22;4871;52.004;5.924;2023-05-15T01:38:09;13.6;63.1
9666;DHT22;4871;52.004;5.924;2023-05-15T01:39:02;13.5;62.9
9666;DHT22;4871;52.004;5.924;2023-05-15T01:40:02;13.5;62.8
9666;DHT22;4871;52.004;5.924;2023-05-15T01:41:06;13.5;63.0
9666;DHT22;4871;52.004;5.924;2023-05-15T01:42:03;13.5;63.1
9666;DHT22;4871;52.004;5.924;2023-05-15T01:43:04;13.5;62.8
9666;DHT22;4871;52.004;5.924;2023-05-15T01:44:04;13.5;63.0
9666;DHT22;4871;52.004;5.924;2023-05-15T01:45:02;13.5;62.9
9666;DHT22;4871;52.004;5.924;2023-05-15T01:46:00;13.5;63.1
9666;DHT22;4871;52.004;5.924;2023-05-15T01:47:03;13.5;62.9
9666;DHT22;4871;52.004;5.924;2023-05-15T01:48:00;13.5;63.1
9666;DHT22;4871;52.004;5.924;2023-05-15T01:49:01;13.4;63.1
9666;DHT22;4871;52.004;5.924;2023-05-15T01:50:01;13.4;63.3
9666;DHT22;4871;52.004;5.924;2023-05-15T01:51:02;13.4;62.9
9666;DHT22;4871;52.004;5.924;2023-05-15T01:52:04;13.4;63.2
9666;DHT22;4871;52.004;5.924;2023-05-15T01:53:01;13.4;62.8
9666;DHT22;4871;52.004;5.924;2023-05-15T01:54:02;13.4;62.9
9666;DHT22;4871;52.004;5.924;2023-05-15T01:55:01;13.4;63.2
9666;DHT22;4871;52.004;5.924;2023-05-15T01:56:01;13.4;63.0
9666;DHT22;4871;52.004;5.924;2023-05-15T01:57:01;13.4;62.7
9666;DHT22;4871;52.004;5.924;2023-05-15T01:58:01;13.4;63.1
9666;DHT22;4871;52.004;5.924;2023-05-15T01:59:01;13.4;63.0
9666;DHT22;4871;52.004;5.924;2023-05-15T02:00:02;13.4;62.8
9666;DHT22;4871;52.004;5.924;2023-05-15T02:01:00;13.3;63.1
9666;DHT22;4871;52.004;5.924;2023-05-15T02:02:01;13.3;63.1
9666;DHT22;4871;52.004;5.924;2023-05-15T02:03:00;13.3;63.1
9666;DHT22;4871;52.004;5.924;2023-05-15T02:04:01;13.3;62.8
9666;DHT22;4871;52.004;5.924;2023-05-15T02:05:01;13.3;63.3
9666;DHT22;4871;52.004;5.924;2023-05-15T02:06:00;13.3;63.1
9666;DHT22;4871;52.004;5.924;2023-05-15T02:07:01;13.3;63.1
9666;DHT22;4871;52.004;5.924;2023-05-15T02:08:01;13.3;63.2
9666;DHT22;4871;52.004;5.924;2023-05-15T02:09:01;13.3;63.1
9666;DHT22;4871;52.004;5.924;2023-05-15T02:10:01;13.3;63.3
9666;DHT22;4871;52.004;5.924;2023-05-15T02:11:01;13.3;63.0
9666;DHT22;4871;52.004;5.924;2023-05-15T02:12:01;13.2;63.1
9666;DHT22;4871;52.004;5.924;2023-05-15T02:13:00;13.2;63.4
9666;DHT22;4871;52.004;5.924;2023-05-15T02:14:00;13.2;63.3
9666;DHT22;4871;52.004;5.924;2023-05-15T02:15:01;13.2;63.2
9666;DHT22;4871;52.004;5.924;2023-05-15T02:16:00;13.2;63.5
9666;DHT22;4871;52.004;5.924;2023-05-15T02:17:00;13.2;63.4
9666;DHT22;4871;52.004;5.924;2023-05-15T02:18:00;13.2;63.1
9666;DHT22;4871;52.004;5.924;2023-05-15T02:19:00;13.2;63.7
9666;DHT22;4871;52.004;5.924;2023-05-15T02:20:00;13.2;63.6
9666;DHT22;4871;52.004;5.924;2023-05-15T02:21:02;13.1;63.6
9666;DHT22;4871;52.004;5.924;2023-05-15T02:22:00;13.1;63.6
9666;DHT22;4871;52.004;5.924;2023-05-15T02:23:00;13.1;63.4
9666;DHT22;4871;52.004;5.924;2023-05-15T02:24:00;13.1;63.8
9666;DHT22;4871;52.004;5.924;2023-05-15T02:25:01;13.1;63.6
9666;DHT22;4871;52.004;5.924;2023-05-15T02:26:07;13.1;63.6
9666;DHT22;4871;52.004;5.924;2023-05-15T02:27:05;13.2;63.4
9666;DHT22;4871;52.004;5.924;2023-05-15T02:28:03;13.1;63.2
9666;DHT22;4871;52.004;5.924;2023-05-15T02:29:08;13.2;63.3
9666;DHT22;4871;52.004;5.924;2023-05-15T02:30:11;13.1;63.4
9666;DHT22;4871;52.004;5.924;2023-05-15T02:31:04;13.1;63.4
9666;DHT22;4871;52.004;5.924;2023-05-15T02:32:05;13.1;63.4
9666;DHT22;4871;52.004;5.924;2023-05-15T02:33:06;13.1;63.5
9666;DHT22;4871;52.004;5.924;2023-05-15T02:34:09;13.1;63.8
9666;DHT22;4871;52.004;5.924;2023-05-15T02:35:06;13.0;63.7
9666;DHT22;4871;52.004;5.924;2023-05-15T02:36:04;13.1;63.8
9666;DHT22;4871;52.004;5.924;2023-05-15T02:37:02;13.1;63.4
9666;DHT22;4871;52.004;5.924;2023-05-15T02:38:10;13.0;63.4
9666;DHT22;4871;52.004;5.924;2023-05-15T02:39:01;13.1;63.6
9666;DHT22;4871;52.004;5.924;2023-05-15T02:40:02;13.1;63.8
9666;DHT22;4871;52.004;5.924;2023-05-15T02:41:01;13.0;63.7
9666;DHT22;4871;52.004;5.924;2023-05-15T02:42:00;13.1;63.6
9666;DHT22;4871;52.004;5.924;2023-05-15T02:43:00;13.0;63.3
9666;DHT22;4871;52.004;5.924;2023-05-15T02:44:01;13.0;63.4
9666;DHT22;4871;52.004;5.924;2023-05-15T02:45:01;13.0;63.4
9666;DHT22;4871;52.004;5.924;2023-05-15T02:46:01;13.0;63.4
9666;DHT22;4871;52.004;5.924;2023-05-15T02:47:00;13.0;63.4
9666;DHT22;4871;52.004;5.924;2023-05-15T02:48:01;13.0;63.1
9666;DHT22;4871;52.004;5.924;2023-05-15T02:49:00;13.0;63.4
9666;DHT22;4871;52.004;5.924;2023-05-15T02:50:01;13.0;63.7
9666;DHT22;4871;52.004;5.924;2023-05-15T02:51:00;13.0;63.5
9666;DHT22;4871;52.004;5.924;2023-05-15T02:52:00;13.0;63.4
9666;DHT22;4871;52.004;5.924;2023-05-15T02:53:01;13.0;63.6
9666;DHT22;4871;52.004;5.924;2023-05-15T02:54:01;12.9;63.8
9666;DHT22;4871;52.004;5.924;2023-05-15T02:55:00;13.0;63.7
9666;DHT22;4871;52.004;5.924;2023-05-15T02:56:01;13.0;63.7
9666;DHT22;4871;52.004;5.924;2023-05-15T02:57:00;13.0;63.7
9666;DHT22;4871;52.004;5.924;2023-05-15T02:58:01;12.9;63.6
9666;DHT22;4871;52.004;5.924;2023-05-15T02:59:00;12.9;63.6
9666;DHT22;4871;52.004;5.924;2023-05-15T03:00:00;12.9;63.7
9666;DHT22;4871;52.004;5.924;2023-05-15T03:01:00;12.9;63.7
9666;DHT22;4871;52.004;5.924;2023-05-15T03:02:02;12.9;63.6
9666;DHT22;4871;52.004;5.924;2023-05-15T03:03:00;12.9;63.6
9666;DHT22;4871;52.004;5.924;2023-05-15T03:04:00;12.9;63.7
9666;DHT22;4871;52.004;5.924;2023-05-15T03:05:00;12.9;63.6
9666;DHT22;4871;52.004;5.924;2023-05-15T03:06:00;12.9;63.5
9666;DHT22;4871;52.004;5.924;2023-05-15T03:07:00;12.9;63.6
9666;DHT22;4871;52.004;5.924;2023-05-15T03:08:00;12.9;63.7
9666;DHT22;4871;52.004;5.924;2023-05-15T03:09:00;12.9;63.5
9666;DHT22;4871;52.004;5.924;2023-05-15T03:10:00;12.8;63.8
9666;DHT22;4871;52.004;5.924;2023-05-15T03:11:00;12.8;63.9
9666;DHT22;4871;52.004;5.924;2023-05-15T03:12:00;12.8;64.1
9666;DHT22;4871;52.004;5.924;2023-05-15T03:13:01;12.8;63.9
9666;DHT22;4871;52.004;5.924;2023-05-15T03:14:00;12.8;63.7
9666;DHT22;4871;52.004;5.924;2023-05-15T03:15:00;12.8;64.0
9666;DHT22;4871;52.004;5.924;2023-05-15T03:16:00;12.8;63.8
9666;DHT22;4871;52.004;5.924;2023-05-15T03:17:00;12.8;63.6
9666;DHT22;4871;52.004;5.924;2023-05-15T03:18:00;12.8;64.0
9666;DHT22;4871;52.004;5.924;2023-05-15T03:19:00;12.8;64.2
9666;DHT22;4871;52.004;5.924;2023-05-15T03:20:00;12.7;64.2
9666;DHT22;4871;52.004;5.924;2023-05-15T03:21:00;12.7;64.3
9666;DHT22;4871;52.004;5.924;2023-05-15T03:22:00;12.7;64.1
9666;DHT22;4871;52.004;5.924;2023-05-15T03:23:00;12.7;64.1
9666;DHT22;4871;52.004;5.924;2023-05-15T03:24:00;12.7;64.3
9666;DHT22;4871;52.004;5.924;2023-05-15T03:25:00;12.7;64.0
9666;DHT22;4871;52.004;5.924;2023-05-15T03:26:00;12.7;64.2
9666;DHT22;4871;52.004;5.924;2023-05-15T03:27:00;12.7;64.3
9666;DHT22;4871;52.004;5.924;2023-05-15T03:28:00;12.7;64.5
9666;DHT22;4871;52.004;5.924;2023-05-15T03:29:01;12.7;64.0
9666;DHT22;4871;52.004;5.924;2023-05-15T03:30:00;12.7;64.7
9666;DHT22;4871;52.004;5.924;2023-05-15T03:31:00;12.7;64.4
9666;DHT22;4871;52.004;5.924;2023-05-15T03:32:00;12.6;64.5
9666;DHT22;4871;52.004;5.924;2023-05-15T03:33:03;12.6;64.6
9666;DHT22;4871;52.004;5.924;2023-05-15T03:34:00;12.6;64.5
9666;DHT22;4871;52.004;5.924;2023-05-15T03:35:00;12.6;64.1
9666;DHT22;4871;52.004;5.924;2023-05-15T03:36:00;12.6;64.6
9666;DHT22;4871;52.004;5.924;2023-05-15T03:37:00;12.6;64.9
9666;DHT22;4871;52.004;5.924;2023-05-15T03:38:00;12.6;64.8
9666;DHT22;4871;52.004;5.924;2023-05-15T03:39:00;12.7;64.5
9666;DHT22;4871;52.004;5.924;2023-05-15T03:40:00;12.6;64.7
9666;DHT22;4871;52.004;5.924;2023-05-15T03:41:00;12.6;64.4
9666;DHT22;4871;52.004;5.924;2023-05-15T03:42:00;12.6;64.5
9666;DHT22;4871;52.004;5.924;2023-05-15T03:43:00;12.6;64.8
9666;DHT22;4871;52.004;5.924;2023-05-15T03:44:00;12.6;64.8
9666;DHT22;4871;52.004;5.924;2023-05-15T03:45:00;12.6;65.0
9666;DHT22;4871;52.004;5.924;2023-05-15T03:46:00;12.6;64.8
9666;DHT22;4871;52.004;5.924;2023-05-15T03:47:00;12.6;64.8
9666;DHT22;4871;52.004;5.924;2023-05-15T03:48:00;12.6;65.2
9666;DHT22;4871;52.004;5.924;2023-05-15T03:49:00;12.6;65.0
9666;DHT22;4871;52.004;5.924;2023-05-15T03:50:00;12.6;64.6
9666;DHT22;4871;52.004;5.924;2023-05-15T03:51:00;12.7;64.7
9666;DHT22;4871;52.004;5.924;2023-05-15T03:52:00;12.6;64.4
9666;DHT22;4871;52.004;5.924;2023-05-15T03:53:00;12.7;64.7
9666;DHT22;4871;52.004;5.924;2023-05-15T03:54:00;12.7;64.6
9666;DHT22;4871;52.004;5.924;2023-05-15T03:55:00;12.7;64.5
9666;DHT22;4871;52.004;5.924;2023-05-15T03:56:00;12.6;64.5
9666;DHT22;4871;52.004;5.924;2023-05-15T03:57:00;12.7;64.5
9666;DHT22;4871;52.004;5.924;2023-05-15T03:58:00;12.6;64.8
9666;DHT22;4871;52.004;5.924;2023-05-15T03:59:00;12.7;64.7
9666;DHT22;4871;52.004;5.924;2023-05-15T04:00:03;12.7;64.7
9666;DHT22;4871;52.004;5.924;2023-05-15T04:01:00;12.7;64.5
9666;DHT22;4871;52.004;5.924;2023-05-15T04:02:00;12.7;64.4
9666;DHT22;4871;52.004;5.924;2023-05-15T04:03:00;12.7;64.4
9666;DHT22;4871;52.004;5.924;2023-05-15T04:04:00;12.7;64.4
9666;DHT22;4871;52.004;5.924;2023-05-15T04:05:00;12.6;64.6
9666;DHT22;4871;52.004;5.924;2023-05-15T04:06:00;12.6;65.1
9666;DHT22;4871;52.004;5.924;2023-05-15T04:07:01;12.7;65.0
9666;DHT22;4871;52.004;5.924;2023-05-15T04:08:00;12.7;65.2
9666;DHT22;4871;52.004;5.924;2023-05-15T04:09:00;12.7;64.8
9666;DHT22;4871;52.004;5.924;2023-05-15T04:10:00;12.7;65.1
9666;DHT22;4871;52.004;5.924;2023-05-15T04:11:00;12.7;65.1
9666;DHT22;4871;52.004;5.924;2023-05-15T04:12:00;12.7;65.1
9666;DHT22;4871;52.004;5.924;2023-05-15T04:13:00;12.7;64.4
9666;DHT22;4871;52.004;5.924;2023-05-15T04:14:00;12.7;65.0
9666;DHT22;4871;52.004;5.924;2023-05-15T04:15:14;12.7;65.2
9666;DHT22;4871;52.004;5.924;2023-05-15T04:16:01;12.7;65.2
9666;DHT22;4871;52.004;5.924;2023-05-15T04:17:00;12.7;64.8
9666;DHT22;4871;52.004;5.924;2023-05-15T04:18:00;12.7;65.1
9666;DHT22;4871;52.004;5.924;2023-05-15T04:19:00;12.7;64.8
9666;DHT22;4871;52.004;5.924;2023-05-15T04:20:00;12.7;65.0
9666;DHT22;4871;52.004;5.924;2023-05-15T04:21:00;12.7;64.8
9666;DHT22;4871;52.004;5.924;2023-05-15T04:22:00;12.7;65.0
9666;DHT22;4871;52.004;5.924;2023-05-15T04:23:01;12.7;65.0
9666;DHT22;4871;52.004;5.924;2023-05-15T04:24:00;12.7;64.8
9666;DHT22;4871;52.004;5.924;2023-05-15T04:25:00;12.7;65.0
9666;DHT22;4871;52.004;5.924;2023-05-15T04:26:00;12.7;65.0
9666;DHT22;4871;52.004;5.924;2023-05-15T04:27:00;12.8;64.7
9666;DHT22;4871;52.004;5.924;2023-05-15T04:28:00;12.8;64.6
9666;DHT22;4871;52.004;5.924;2023-05-15T04:29:00;12.8;64.8
9666;DHT22;4871;52.004;5.924;2023-05-15T04:30:00;12.8;64.8
9666;DHT22;4871;52.004;5.924;2023-05-15T04:31:00;12.8;64.7
9666;DHT22;4871;52.004;5.924;2023-05-15T04:32:01;12.8;64.4
9666;DHT22;4871;52.004;5.924;2023-05-15T04:33:00;12.8;64.7
9666;DHT22;4871;52.004;5.924;2023-05-15T04:34:00;12.8;64.5
9666;DHT22;4871;52.004;5.924;2023-05-15T04:35:00;12.8;64.3
9666;DHT22;4871;52.004;5.924;2023-05-15T04:36:01;12.9;64.5
9666;DHT22;4871;52.004;5.924;2023-05-15T04:37:00;12.8;64.3
9666;DHT22;4871;52.004;5.924;2023-05-15T04:38:00;12.8;64.7
9666;DHT22;4871;52.004;5.924;2023-05-15T04:39:00;12.9;64.4
9666;DHT22;4871;52.004;5.924;2023-05-15T04:40:00;12.9;64.1
9666;DHT22;4871;52.004;5.924;2023-05-15T04:41:00;12.9;64.5
9666;DHT22;4871;52.004;5.924;2023-05-15T04:42:01;12.9;64.4
9666;DHT22;4871;52.004;5.924;2023-05-15T04:43:03;12.9;64.4
9666;DHT22;4871;52.004;5.924;2023-05-15T04:44:00;12.8;64.8
9666;DHT22;4871;52.004;5.924;2023-05-15T04:45:00;12.9;64.6
9666;DHT22;4871;52.004;5.924;2023-05-15T04:46:00;12.9;64.6
9666;DHT22;4871;52.004;5.924;2023-05-15T04:47:00;13.0;64.5
9666;DHT22;4871;52.004;5.924;2023-05-15T04:48:00;13.0;64.4
9666;DHT22;4871;52.004;5.924;2023-05-15T04:49:00;12.9;64.5
9666;DHT22;4871;52.004;5.924;2023-05-15T04:50:00;13.0;64.4
9666;DHT22;4871;52.004;5.924;2023-05-15T04:51:00;13.0;64.3
9666;DHT22;4871;52.004;5.924;2023-05-15T04:52:00;13.0;64.5
9666;DHT22;4871;52.004;5.924;2023-05-15T04:53:00;13.0;64.4
9666;DHT22;4871;52.004;5.924;2023-05-15T04:54:00;13.0;64.2
9666;DHT22;4871;52.004;5.924;2023-05-15T04:55:00;13.0;64.4
9666;DHT22;4871;52.004;5.924;2023-05-15T04:56:00;13.0;65.6
9666;DHT22;4871;52.004;5.924;2023-05-15T04:57:01;13.0;65.0
9666;DHT22;4871;52.004;5.924;2023-05-15T04:58:00;13.1;64.7
9666;DHT22;4871;52.004;5.924;2023-05-15T04:59:00;13.1;64.7
9666;DHT22;4871;52.004;5.924;2023-05-15T05:00:00;13.1;64.6
9666;DHT22;4871;52.004;5.924;2023-05-15T05:01:00;13.1;64.5
9666;DHT22;4871;52.004;5.924;2023-05-15T05:02:01;13.1;65.2
9666;DHT22;4871;52.004;5.924;2023-05-15T05:03:00;13.1;64.8
9666;DHT22;4871;52.004;5.924;2023-05-15T05:04:00;13.1;65.8
9666;DHT22;4871;52.004;5.924;2023-05-15T05:05:00;13.1;64.6
9666;DHT22;4871;52.004;5.924;2023-05-15T05:06:00;13.1;65.0
9666;DHT22;4871;52.004;5.924;2023-05-15T05:07:03;13.1;66.1
9666;DHT22;4871;52.004;5.924;2023-05-15T05:08:00;13.2;65.0
9666;DHT22;4871;52.004;5.924;2023-05-15T05:09:00;13.2;65.0
9666;DHT22;4871;52.004;5.924;2023-05-15T05:10:00;13.2;65.0
9666;DHT22;4871;52.004;5.924;2023-05-15T05:11:00;13.2;64.5
9666;DHT22;4871;52.004;5.924;2023-05-15T05:12:01;13.2;65.2
9666;DHT22;4871;52.004;5.924;2023-05-15T05:13:00;13.2;64.6
9666;DHT22;4871;52.004;5.924;2023-05-15T05:14:00;13.3;64.7
9666;DHT22;4871;52.004;5.924;2023-05-15T05:15:00;13.3;64.9
9666;DHT22;4871;52.004;5.924;2023-05-15T05:16:00;13.3;65.5
9666;DHT22;4871;52.004;5.924;2023-05-15T05:17:00;13.3;64.6
9666;DHT22;4871;52.004;5.924;2023-05-15T05:18:00;13.3;65.2
9666;DHT22;4871;52.004;5.924;2023-05-15T05:19:00;13.3;64.6
9666;DHT22;4871;52.004;5.924;2023-05-15T05:20:00;13.3;64.5
9666;DHT22;4871;52.004;5.924;2023-05-15T05:21:01;13.4;64.4
9666;DHT22;4871;52.004;5.924;2023-05-15T05:22:04;13.4;64.1
9666;DHT22;4871;52.004;5.924;2023-05-15T05:23:00;13.4;64.3
9666;DHT22;4871;52.004;5.924;2023-05-15T05:24:00;13.4;64.4
9666;DHT22;4871;52.004;5.924;2023-05-15T05:25:00;13.4;64.4
9666;DHT22;4871;52.004;5.924;2023-05-15T05:26:00;13.4;64.1
9666;DHT22;4871;52.004;5.924;2023-05-15T05:27:00;13.4;64.1
9666;DHT22;4871;52.004;5.924;2023-05-15T05:28:00;13.4;64.0
9666;DHT22;4871;52.004;5.924;2023-05-15T05:29:00;13.4;64.3
9666;DHT22;4871;52.004;5.924;2023-05-15T05:30:00;13.4;64.2
9666;DHT22;4871;52.004;5.924;2023-05-15T05:31:02;13.4;64.2
9666;DHT22;4871;52.004;5.924;2023-05-15T05:32:00;13.4;65.2
9666;DHT22;4871;52.004;5.924;2023-05-15T05:33:00;13.4;64.6
9666;DHT22;4871;52.004;5.924;2023-05-15T05:34:00;13.4;64.8
9666;DHT22;4871;52.004;5.924;2023-05-15T05:35:00;13.4;64.2
9666;DHT22;4871;52.004;5.924;2023-05-15T05:36:00;13.5;64.4
9666;DHT22;4871;52.004;5.924;2023-05-15T05:37:00;13.5;64.5
9666;DHT22;4871;52.004;5.924;2023-05-15T05:38:00;13.4;65.1
9666;DHT22;4871;52.004;5.924;2023-05-15T05:39:00;13.5;65.3
9666;DHT22;4871;52.004;5.924;2023-05-15T05:40:00;13.5;64.6
9666;DHT22;4871;52.004;5.924;2023-05-15T05:41:00;13.5;65.2
9666;DHT22;4871;52.004;5.924;2023-05-15T05:42:00;13.5;65.2
9666;DHT22;4871;52.004;5.924;2023-05-15T05:43:00;13.5;64.7
9666;DHT22;4871;52.004;5.924;2023-05-15T05:44:00;13.5;64.4
9666;DHT22;4871;52.004;5.924;2023-05-15T05:45:00;13.5;64.5
9666;DHT22;4871;52.004;5.924;2023-05-15T05:46:00;13.5;64.7
9666;DHT22;4871;52.004;5.924;2023-05-15T05:47:00;13.5;64.7
9666;DHT22;4871;52.004;5.924;2023-05-15T05:48:00;13.6;65.7
9666;DHT22;4871;52.004;5.924;2023-05-15T05:49:00;13.6;64.8
9666;DHT22;4871;52.004;5.924;2023-05-15T05:50:00;13.7;64.4
9666;DHT22;4871;52.004;5.924;2023-05-15T05:51:00;13.7;64.3
9666;DHT22;4871;52.004;5.924;2023-05-15T05:52:05;13.7;64.9
9666;DHT22;4871;52.004;5.924;2023-05-15T05:53:00;13.7;64.2
9666;DHT22;4871;52.004;5.924;2023-05-15T05:54:00;13.7;65.1
9666;DHT22;4871;52.004;5.924;2023-05-15T05:55:00;13.8;64.9
9666;DHT22;4871;52.004;5.924;2023-05-15T05:56:00;13.8;64.9
9666;DHT22;4871;52.004;5.924;2023-05-15T05:57:00;13.9;64.9
9666;DHT22;4871;52.004;5.924;2023-05-15T05:58:00;13.9;64.2
9666;DHT22;4871;52.004;5.924;2023-05-15T05:59:01;13.9;64.5
9666;DHT22;4871;52.004;5.924;2023-05-15T06:00:00;13.9;64.6
9666;DHT22;4871;52.004;5.924;2023-05-15T06:01:00;14.0;64.2
9666;DHT22;4871;52.004;5.924;2023-05-15T06:02:00;14.0;63.8
9666;DHT22;4871;52.004;5.924;2023-05-15T06:03:00;14.0;64.1
9666;DHT22;4871;52.004;5.924;2023-05-15T06:04:00;14.1;64.2
9666;DHT22;4871;52.004;5.924;2023-05-15T06:05:00;14.1;63.4
9666;DHT22;4871;52.004;5.924;2023-05-15T06:06:00;14.1;63.5
9666;DHT22;4871;52.004;5.924;2023-05-15T06:07:01;14.2;63.6
9666;DHT22;4871;52.004;5.924;2023-05-15T06:08:03;14.2;64.0
9666;DHT22;4871;52.004;5.924;2023-05-15T06:09:01;14.3;64.4
9666;DHT22;4871;52.004;5.924;2023-05-15T06:10:00;14.3;63.6
9666;DHT22;4871;52.004;5.924;2023-05-15T06:11:00;14.4;64.2
9666;DHT22;4871;52.004;5.924;2023-05-15T06:12:03;14.5;64.2
9666;DHT22;4871;52.004;5.924;2023-05-15T06:13:00;14.6;63.4
9666;DHT22;4871;52.004;5.924;2023-05-15T06:14:00;14.7;63.4
9666;DHT22;4871;52.004;5.924;2023-05-15T06:15:00;14.8;62.8
9666;DHT22;4871;52.004;5.924;2023-05-15T06:16:00;14.9;62.8
9666;DHT22;4871;52.004;5.924;2023-05-15T06:17:00;15.0;62.1
9666;DHT22;4871;52.004;5.924;2023-05-15T06:18:00;15.2;62.6
9666;DHT22;4871;52.004;5.924;2023-05-15T06:19:00;15.3;61.8
9666;DHT22;4871;52.004;5.924;2023-05-15T06:20:00;15.3;61.5
9666;DHT22;4871;52.004;5.924;2023-05-15T06:21:00;15.4;61.5
9666;DHT22;4871;52.004;5.924;2023-05-15T06:22:00;15.5;61.5
9666;DHT22;4871;52.004;5.924;2023-05-15T06:23:00;15.6;61.8
9666;DHT22;4871;52.004;5.924;2023-05-15T06:24:00;15.7;60.9
9666;DHT22;4871;52.004;5.924;2023-05-15T06:25:00;15.7;61.0
9666;DHT22;4871;52.004;5.924;2023-05-15T06:26:00;15.8;60.6
9666;DHT22;4871;52.004;5.924;2023-05-15T06:27:00;15.9;60.3
9666;DHT22;4871;52.004;5.924;2023-05-15T06:28:00;15.9;60.5
9666;DHT22;4871;52.004;5.924;2023-05-15T06:29:00;16.0;59.9
9666;DHT22;4871;52.004;5.924;2023-05-15T06:30:00;16.0;59.9
9666;DHT22;4871;52.004;5.924;2023-05-15T06:31:00;16.1;59.3
9666;DHT22;4871;52.004;5.924;2023-05-15T06:32:00;16.1;59.5
9666;DHT22;4871;52.004;5.924;2023-05-15T06:33:00;16.2;59.1
9666;DHT22;4871;52.004;5.924;2023-05-15T06:34:00;16.2;59.1
9666;DHT22;4871;52.004;5.924;2023-05-15T06:35:00;16.2;59.4
9666;DHT22;4871;52.004;5.924;2023-05-15T06:36:00;16.2;59.2
9666;DHT22;4871;52.004;5.924;2023-05-15T06:37:00;16.3;59.4
9666;DHT22;4871;52.004;5.924;2023-05-15T06:38:00;16.4;59.2
9666;DHT22;4871;52.004;5.924;2023-05-15T06:39:00;16.5;60.2
9666;DHT22;4871;52.004;5.924;2023-05-15T06:40:00;16.6;59.9
9666;DHT22;4871;52.004;5.924;2023-05-15T06:41:00;16.6;59.0
9666;DHT22;4871;52.004;5.924;2023-05-15T06:42:00;16.7;58.2
9666;DHT22;4871;52.004;5.924;2023-05-15T06:43:00;16.8;58.1
9666;DHT22;4871;52.004;5.924;2023-05-15T06:44:00;16.8;58.4